createdAt,value
2018-07-24T09:51:57.332Z,6.87
2018-07-24T09:54:26.469Z,7.33
2018-07-24T09:56:55.728Z,7.35
2018-07-24T10:38:41.234Z,5.58
2018-07-24T10:41:09.931Z,5.70
2018-07-24T10:43:38.742Z,5.80
2018-07-24T10:46:07.681Z,5.83
2018-07-24T10:48:36.790Z,5.35
2018-07-24T10:51:05.757Z,5.87
2018-07-24T10:53:34.754Z,5.80
2018-07-24T10:56:03.714Z,5.28
2018-07-24T10:58:32.955Z,5.30
2018-07-24T11:01:02.261Z,5.20
2018-07-24T11:03:32.568Z,4.40
2018-07-24T11:06:01.339Z,5.50
2018-07-24T11:08:30.674Z,5.40
2018-07-24T11:10:59.569Z,5.45
2018-07-24T11:13:28.354Z,5.62
2018-07-24T11:15:57.158Z,5.40
2018-07-24T11:18:26.824Z,5.55
2018-07-24T11:20:56.460Z,5.37
2018-07-24T11:23:25.343Z,5.40
2018-07-24T11:25:54.083Z,5.65
2018-07-24T11:28:22.962Z,5.33
2018-07-24T11:30:51.949Z,5.83
2018-07-24T11:33:22.614Z,5.50
2018-07-24T11:35:51.676Z,5.83
2018-07-24T11:38:20.471Z,5.37
2018-07-24T11:40:51.141Z,5.40
2018-07-24T11:43:21.416Z,5.92
2018-07-24T11:45:50.671Z,5.78
2018-07-24T11:48:20.671Z,5.72
2018-07-24T11:50:49.363Z,5.80
2018-07-24T11:53:18.593Z,5.42
2018-07-24T11:55:47.293Z,5.62
2018-07-24T11:58:16.725Z,5.37
2018-07-24T12:00:45.828Z,5.22
2018-07-24T12:03:15.911Z,5.08
2018-07-24T12:05:44.783Z,4.83
2018-07-24T12:08:13.559Z,5.10
2018-07-24T12:10:44.590Z,5.03
2018-07-24T12:13:14.614Z,5.60
2018-07-24T12:15:43.479Z,5.53
2018-07-24T12:18:12.376Z,5.20
2018-07-24T12:20:41.251Z,5.87
2018-07-24T12:23:10.687Z,5.33
2018-07-24T12:25:39.390Z,5.45
2018-07-24T12:28:08.783Z,5.03
2018-07-24T12:30:37.504Z,5.25
2018-07-24T12:33:06.601Z,5.33
2018-07-24T12:35:35.592Z,6.22
2018-07-24T12:38:05.069Z,6.33
2018-07-24T12:40:33.790Z,6.35
2018-07-24T12:43:02.625Z,7.30
2018-07-24T12:45:31.528Z,6.72
2018-07-24T12:48:01.601Z,8.25
2018-07-24T12:50:30.479Z,7.70
2018-07-24T12:52:59.572Z,7.12
2018-07-24T12:55:29.121Z,7.58
2018-07-24T12:57:58.135Z,6.80
2018-07-24T13:00:26.913Z,7.37
2018-07-24T13:02:55.796Z,7.25
2018-07-24T13:05:24.681Z,7.00
2018-07-24T13:07:53.833Z,6.58
2018-07-24T13:10:22.723Z,6.85
2018-07-24T13:12:51.483Z,6.70
2018-07-24T13:15:20.649Z,5.90
2018-07-24T13:17:49.374Z,7.00
2018-07-24T13:20:18.280Z,6.65
2018-07-24T13:22:47.147Z,6.30
2018-07-24T13:25:16.029Z,5.95
2018-07-24T13:27:44.779Z,6.78
2018-07-24T13:30:14.224Z,6.60
2018-07-24T13:32:43.168Z,6.20
2018-07-24T13:35:11.909Z,6.50
2018-07-24T13:37:40.788Z,6.10
2018-07-24T13:40:09.698Z,6.03
2018-07-24T13:42:38.542Z,6.00
2018-07-24T13:45:07.365Z,6.35
2018-07-24T13:47:36.214Z,6.40
2018-07-24T13:50:05.485Z,5.95
2018-07-24T13:52:34.471Z,6.03
2018-07-24T13:55:03.217Z,6.00
2018-07-24T13:57:31.920Z,6.15
2018-07-24T14:00:01.560Z,6.22
2018-07-24T14:02:30.564Z,5.95
2018-07-24T14:04:59.356Z,6.85
2018-07-24T14:07:28.226Z,5.87
2018-07-24T14:09:57.227Z,6.17
2018-07-24T14:12:26.182Z,6.25
2018-07-24T14:14:55.092Z,5.80
2018-07-24T14:17:24.004Z,5.90
2018-07-24T14:19:52.814Z,5.97
2018-07-24T14:22:21.744Z,6.10
2018-07-24T14:24:50.721Z,6.10
2018-07-24T14:27:19.615Z,6.10
2018-07-24T14:29:48.715Z,5.90
2018-07-24T14:32:17.440Z,6.30
2018-07-24T14:34:46.500Z,5.87
2018-07-24T14:37:15.916Z,5.72
2018-07-24T14:39:44.752Z,5.95
2018-07-24T14:42:13.542Z,5.92
2018-07-24T14:44:42.900Z,5.37
2018-07-24T14:47:11.797Z,5.72
2018-07-24T14:49:40.577Z,6.12
2018-07-24T14:52:09.292Z,5.33
2018-07-24T14:54:38.176Z,5.45
2018-07-24T14:57:07.031Z,5.90
2018-07-24T14:59:36.005Z,5.75
2018-07-24T15:02:05.309Z,5.83
2018-07-24T15:04:34.105Z,5.80
2018-07-24T15:07:02.930Z,5.42
2018-07-24T15:09:31.730Z,5.83
2018-07-24T15:12:00.492Z,5.87
2018-07-24T15:14:29.531Z,5.53
2018-07-24T15:16:58.493Z,5.15
2018-07-24T15:19:27.395Z,5.87
2018-07-24T15:21:56.744Z,4.70
2018-07-24T15:24:25.588Z,5.75
2018-07-24T15:26:54.349Z,5.62
2018-07-24T15:29:23.135Z,5.50
2018-07-24T15:31:52.428Z,5.33
2018-07-24T15:34:21.325Z,4.75
2018-07-24T15:36:50.038Z,5.65
2018-07-24T15:39:18.835Z,5.80
2018-07-24T15:41:47.648Z,5.47
2018-07-24T15:44:16.447Z,6.10
2018-07-24T15:46:45.361Z,6.03
2018-07-24T15:49:14.024Z,5.40
2018-07-24T15:51:42.864Z,5.22
2018-07-24T15:54:11.771Z,5.47
2018-07-24T15:56:41.719Z,5.60
2018-07-24T15:59:10.571Z,5.35
2018-07-24T16:01:39.947Z,5.90
2018-07-24T16:04:08.792Z,6.45
2018-07-24T16:06:37.657Z,5.53
2018-07-24T16:09:09.825Z,5.25
2018-07-24T16:11:38.655Z,5.37
2018-07-24T16:14:07.577Z,5.87
2018-07-24T16:16:36.550Z,4.83
2018-07-24T16:19:05.595Z,5.60
2018-07-24T16:21:34.390Z,5.53
2018-07-24T16:24:03.200Z,5.37
2018-07-24T16:26:33.171Z,5.70
2018-07-24T16:29:02.255Z,6.10
2018-07-24T16:31:31.908Z,5.42
2018-07-24T16:34:00.908Z,5.40
2018-07-24T16:36:31.428Z,5.50
2018-07-24T16:39:00.193Z,4.72
2018-07-24T16:41:29.083Z,6.55
2018-07-24T16:43:58.151Z,5.62
2018-07-24T16:46:27.086Z,5.53
2018-07-24T16:48:56.935Z,5.25
2018-07-24T16:51:26.089Z,5.37
2018-07-24T16:53:54.856Z,5.55
2018-07-24T16:56:25.222Z,5.37
2018-07-24T16:58:53.990Z,5.50
2018-07-24T17:01:22.995Z,5.25
2018-07-24T17:03:51.876Z,4.95
2018-07-24T17:06:20.635Z,5.42
2018-07-24T17:08:49.446Z,4.97
2018-07-24T17:11:18.296Z,5.60
2018-07-24T17:13:47.173Z,5.42
2018-07-24T17:16:15.990Z,5.67
2018-07-24T17:18:44.858Z,5.42
2018-07-24T17:21:13.654Z,5.65
2018-07-24T17:23:42.618Z,5.40
2018-07-24T17:26:11.591Z,5.62
2018-07-24T17:28:40.384Z,6.50
2018-07-24T17:31:09.253Z,5.78
2018-07-24T17:33:38.137Z,8.15
2018-07-24T17:36:06.996Z,5.47
2018-07-24T17:38:36.423Z,6.03
2018-07-24T17:41:05.319Z,5.55
2018-07-24T17:43:34.159Z,6.25
2018-07-24T17:46:03.018Z,7.65
2018-07-24T17:48:32.188Z,5.80
2018-07-24T17:51:01.012Z,5.80
2018-07-24T17:53:29.863Z,6.00
2018-07-24T17:55:58.654Z,6.70
2018-07-24T17:58:27.447Z,7.12
2018-07-24T18:00:56.326Z,6.78
2018-07-24T18:03:25.818Z,6.70
2018-07-24T18:05:54.869Z,6.03
2018-07-24T18:08:23.901Z,6.90
2018-07-24T18:10:52.744Z,7.17
2018-07-24T18:13:21.588Z,6.65
2018-07-24T18:15:50.396Z,7.10
2018-07-24T18:18:20.003Z,8.20
2018-07-24T18:20:48.815Z,8.03
2018-07-24T18:23:17.568Z,7.12
2018-07-24T18:25:46.697Z,7.37
2018-07-24T18:28:15.810Z,7.85
2018-07-24T18:30:44.649Z,7.25
2018-07-24T18:33:13.421Z,8.88
2018-07-24T18:35:42.202Z,8.05
2018-07-24T18:38:11.143Z,7.37
2018-07-24T18:40:40.091Z,9.00
2018-07-24T18:43:09.004Z,7.90
2018-07-24T18:45:37.883Z,7.67
2018-07-24T18:48:06.798Z,8.03
2018-07-24T18:50:35.684Z,7.75
2018-07-24T18:53:04.497Z,7.10
2018-07-24T18:55:33.303Z,7.20
2018-07-24T18:58:02.093Z,7.42
2018-07-24T19:00:30.906Z,7.25
2018-07-24T19:02:59.956Z,8.40
2018-07-24T19:05:29.219Z,8.18
2018-07-24T19:07:58.003Z,8.25
2018-07-24T19:10:26.794Z,8.13
2018-07-24T19:12:55.742Z,8.00
2018-07-24T19:15:24.471Z,8.38
2018-07-24T19:17:53.255Z,8.75
2018-07-24T19:20:22.031Z,10.90
2018-07-24T19:22:50.852Z,9.68
2018-07-24T19:25:19.647Z,8.33
2018-07-24T19:27:48.405Z,8.08
2018-07-24T19:30:17.273Z,7.65
2018-07-24T19:32:46.236Z,7.85
2018-07-24T19:35:15.100Z,7.45
2018-07-24T19:37:43.927Z,7.28
2018-07-24T19:40:13.107Z,7.83
2018-07-24T19:42:41.994Z,8.85
2018-07-24T19:45:10.693Z,8.30
2018-07-24T19:47:39.667Z,7.10
2018-07-24T19:50:08.504Z,8.15
2018-07-24T19:52:37.419Z,8.93
2018-07-24T19:55:06.246Z,9.80
2018-07-24T19:57:35.116Z,9.90
2018-07-24T20:00:04.263Z,10.13
2018-07-24T20:02:33.226Z,9.15
2018-07-24T20:05:02.052Z,9.85
2018-07-24T20:07:32.396Z,8.65
2018-07-24T20:10:02.610Z,21.35
2018-07-24T20:12:31.643Z,11.12
2018-07-24T20:15:01.058Z,9.60
2018-07-24T20:17:29.881Z,8.73
2018-07-24T20:19:59.354Z,8.65
2018-07-24T20:22:28.156Z,8.35
2018-07-24T20:24:58.866Z,15.05
2018-07-24T20:27:27.771Z,13.48
2018-07-24T20:29:56.530Z,12.47
2018-07-24T20:32:26.053Z,13.98
2018-07-24T20:34:55.009Z,10.03
2018-07-24T20:37:23.736Z,11.83
2018-07-24T20:39:52.728Z,10.45
2018-07-24T20:42:21.666Z,9.85
2018-07-24T20:44:51.084Z,9.75
2018-07-24T20:47:19.917Z,9.83
2018-07-24T20:49:49.015Z,9.23
2018-07-24T20:52:18.189Z,10.20
2018-07-24T20:54:46.964Z,9.88
2018-07-24T20:57:15.869Z,9.45
2018-07-24T20:59:44.747Z,9.48
2018-07-24T21:02:13.487Z,9.33
2018-07-24T21:04:42.883Z,8.95
2018-07-24T21:07:11.741Z,8.93
2018-07-24T21:09:40.588Z,7.87
2018-07-24T21:12:09.485Z,8.60
2018-07-24T21:14:38.329Z,8.18
2018-07-24T21:17:07.243Z,8.33
2018-07-24T21:19:36.072Z,8.00
2018-07-24T21:22:04.909Z,7.95
2018-07-24T21:24:33.919Z,8.25
2018-07-24T21:27:03.271Z,8.05
2018-07-24T21:29:32.795Z,8.38
2018-07-24T21:32:02.147Z,8.23
2018-07-24T21:34:31.083Z,8.80
2018-07-24T21:37:01.186Z,8.05
2018-07-24T21:39:30.977Z,8.15
2018-07-24T21:41:59.754Z,8.30
2018-07-24T21:44:28.768Z,7.58
2018-07-24T21:46:57.558Z,8.28
2018-07-24T21:49:26.313Z,8.10
2018-07-24T21:52:01.631Z,7.40
2018-07-24T21:54:32.219Z,7.85
2018-07-24T21:57:01.002Z,7.62
2018-07-24T21:59:29.810Z,8.10
2018-07-24T22:01:58.625Z,8.83
2018-07-24T22:04:27.380Z,9.80
2018-07-24T22:06:56.276Z,9.35
2018-07-24T22:09:25.181Z,7.95
2018-07-24T22:11:54.475Z,8.13
2018-07-24T22:14:23.321Z,8.25
2018-07-24T22:16:52.128Z,8.65
2018-07-24T22:19:21.070Z,8.40
2018-07-24T22:21:50.012Z,7.53
2018-07-24T22:24:18.846Z,8.00
2018-07-24T22:26:47.608Z,7.53
2018-07-24T22:29:16.396Z,8.03
2018-07-24T22:31:45.140Z,7.80
2018-07-24T22:34:14.758Z,7.47
2018-07-24T22:36:43.579Z,7.87
2018-07-24T22:39:12.778Z,7.47
2018-07-24T22:41:41.916Z,7.80
2018-07-24T22:44:10.704Z,7.60
2018-07-24T22:46:39.428Z,7.45
2018-07-24T22:49:08.346Z,7.25
2018-07-24T22:51:37.126Z,7.62
2018-07-24T22:54:05.896Z,6.92
2018-07-24T22:56:34.745Z,8.33
2018-07-24T22:59:03.768Z,7.67
2018-07-24T23:01:32.496Z,7.97
2018-07-24T23:04:01.373Z,7.72
2018-07-24T23:06:30.452Z,7.30
2018-07-24T23:08:59.360Z,7.70
2018-07-24T23:11:28.236Z,7.92
2018-07-24T23:13:57.128Z,7.55
2018-07-24T23:16:27.008Z,6.85
2018-07-24T23:18:55.961Z,7.10
2018-07-24T23:21:25.203Z,7.70
2018-07-24T23:23:53.922Z,7.00
2018-07-24T23:26:22.701Z,7.50
2018-07-24T23:28:51.452Z,7.70
2018-07-24T23:31:20.827Z,7.37
2018-07-24T23:33:49.703Z,6.67
2018-07-24T23:36:18.978Z,6.85
2018-07-24T23:38:48.452Z,7.67
2018-07-24T23:41:17.243Z,6.85
2018-07-24T23:43:45.995Z,7.40
2018-07-24T23:46:14.761Z,7.62
2018-07-24T23:48:43.510Z,7.42
2018-07-24T23:51:12.328Z,7.92
2018-07-24T23:53:41.133Z,7.60
2018-07-24T23:56:09.878Z,7.08
2018-07-24T23:58:38.781Z,7.65
